sensor_id;sensor_type;location;lat;lon;timestamp;pressure;altitude;pressure_sealevel;temperature;humidity
8061;BME280;4073;42.626;25.386;2022-09-03T00:01:28;96949.41;;;21.62;100.00
8061;BME280;4073;42.626;25.386;2022-09-03T00:04:01;96956.63;;;21.70;100.00
8061;BME280;4073;42.626;25.386;2022-09-03T00:06:41;96967.09;;;21.68;100.00
8061;BME280;4073;42.626;25.386;2022-09-03T00:09:24;96966.63;;;21.66;100.00
8061;BME280;4073;42.626;25.386;2022-09-03T00:12:13;96969.59;;;21.61;100.00
8061;BME280;4073;42.626;25.386;2022-09-03T00:14:47;96960.53;;;21.57;100.00
8061;BME280;4073;42.626;25.386;2022-09-03T00:17:35;96969.59;;;21.61;100.00
8061;BME280;4073;42.626;25.386;2022-09-03T00:20:06;96966.44;;;21.59;100.00
8061;BME280;4073;42.626;25.386;2022-09-03T00:22:37;96963.97;;;21.54;100.00
8061;BME280;4073;42.626;25.386;2022-09-03T00:25:08;96966.50;;;21.47;100.00
8061;BME280;4073;42.626;25.386;2022-09-03T00:27:38;96961.06;;;21.47;100.00
8061;BME280;4073;42.626;25.386;2022-09-03T00:30:15;96947.69;;;21.42;100.00
8061;BME280;4073;42.626;25.386;2022-09-03T00:32:48;96947.22;;;21.40;100.00
8061;BME280;4073;42.626;25.386;2022-09-03T00:37:59;96935.63;;;21.28;100.00
8061;BME280;4073;42.626;25.386;2022-09-03T00:43:41;96973.53;;;21.36;100.00
8061;BME280;4073;42.626;25.386;2022-09-03T00:46:23;96965.31;;;21.33;100.00
8061;BME280;4073;42.626;25.386;2022-09-03T00:49:08;96964.50;;;21.32;100.00
8061;BME280;4073;42.626;25.386;2022-09-03T00:52:21;96970.19;;;21.27;100.00
8061;BME280;4073;42.626;25.386;2022-09-03T01:06:05;96949.94;;;21.13;100.00
8061;BME280;4073;42.626;25.386;2022-09-03T01:08:59;96946.44;;;21.12;100.00
8061;BME280;4073;42.626;25.386;2022-09-03T01:12:07;96949.28;;;21.04;100.00
8061;BME280;4073;42.626;25.386;2022-09-03T01:28:32;96948.44;;;20.52;100.00
8061;BME280;4073;42.626;25.386;2022-09-03T01:30:37;96946.03;;;20.38;100.00
8061;BME280;4073;42.626;25.386;2022-09-03T01:39:05;96964.72;;;20.27;100.00
8061;BME280;4073;42.626;25.386;2022-09-03T01:55:43;96958.44;;;20.03;100.00
8061;BME280;4073;42.626;25.386;2022-09-03T01:58:25;96978.00;;;20.08;100.00
8061;BME280;4073;42.626;25.386;2022-09-03T02:00:58;96979.13;;;20.07;100.00
8061;BME280;4073;42.626;25.386;2022-09-03T02:03:33;96963.41;;;20.01;100.00
8061;BME280;4073;42.626;25.386;2022-09-03T02:06:00;96944.88;;;19.91;100.00
8061;BME280;4073;42.626;25.386;2022-09-03T02:08:28;96967.81;;;20.05;100.00
8061;BME280;4073;42.626;25.386;2022-09-03T02:10:55;96973.72;;;20.07;100.00
8061;BME280;4073;42.626;25.386;2022-09-03T02:15:57;96970.63;;;19.97;100.00
8061;BME280;4073;42.626;25.386;2022-09-03T02:18:30;96960.34;;;19.90;100.00
8061;BME280;4073;42.626;25.386;2022-09-03T02:20:59;96967.00;;;19.93;100.00
8061;BME280;4073;42.626;25.386;2022-09-03T02:23:26;96971.75;;;19.96;100.00
8061;BME280;4073;42.626;25.386;2022-09-03T02:25:57;96975.84;;;20.02;100.00
8061;BME280;4073;42.626;25.386;2022-09-03T02:28:25;96984.91;;;20.06;100.00
8061;BME280;4073;42.626;25.386;2022-09-03T02:30:51;96974.03;;;20.06;100.00
8061;BME280;4073;42.626;25.386;2022-09-03T02:33:16;96987.72;;;20.09;100.00
8061;BME280;4073;42.626;25.386;2022-09-03T02:35:43;96981.28;;;20.02;100.00
8061;BME280;4073;42.626;25.386;2022-09-03T02:38:22;96982.19;;;20.06;100.00
8061;BME280;4073;42.626;25.386;2022-09-03T02:40:53;96981.19;;;20.10;100.00
8061;BME280;4073;42.626;25.386;2022-09-03T02:43:41;96995.22;;;20.12;100.00
8061;BME280;4073;42.626;25.386;2022-09-03T02:46:11;96989.66;;;20.09;100.00
8061;BME280;4073;42.626;25.386;2022-09-03T02:48:38;96985.69;;;20.06;100.00
8061;BME280;4073;42.626;25.386;2022-09-03T02:51:03;96972.81;;;20.03;100.00
8061;BME280;4073;42.626;25.386;2022-09-03T02:53:29;96983.66;;;20.03;100.00
8061;BME280;4073;42.626;25.386;2022-09-03T02:55:59;96975.38;;;20.00;100.00
8061;BME280;4073;42.626;25.386;2022-09-03T02:58:25;96974.09;;;19.85;100.00
8061;BME280;4073;42.626;25.386;2022-09-03T03:00:51;96977.16;;;19.84;100.00
8061;BME280;4073;42.626;25.386;2022-09-03T03:03:16;96988.81;;;19.84;100.00
8061;BME280;4073;42.626;25.386;2022-09-03T03:05:48;96986.00;;;19.93;100.00
8061;BME280;4073;42.626;25.386;2022-09-03T03:08:14;96990.03;;;19.87;100.00
8061;BME280;4073;42.626;25.386;2022-09-03T03:10:41;96980.47;;;19.89;100.00
8061;BME280;4073;42.626;25.386;2022-09-03T03:13:09;96980.00;;;19.87;100.00
8061;BME280;4073;42.626;25.386;2022-09-03T03:15:35;96977.28;;;19.87;100.00
8061;BME280;4073;42.626;25.386;2022-09-03T03:18:00;96983.28;;;19.81;100.00
8061;BME280;4073;42.626;25.386;2022-09-03T03:20:26;96989.03;;;19.79;100.00
8061;BME280;4073;42.626;25.386;2022-09-03T03:22:52;96981.13;;;19.86;100.00
8061;BME280;4073;42.626;25.386;2022-09-03T03:25:17;96984.09;;;19.93;100.00
8061;BME280;4073;42.626;25.386;2022-09-03T03:27:42;96973.00;;;19.98;100.00
8061;BME280;4073;42.626;25.386;2022-09-03T03:30:09;96988.09;;;20.08;100.00
8061;BME280;4073;42.626;25.386;2022-09-03T03:32:36;96986.16;;;20.08;100.00
8061;BME280;4073;42.626;25.386;2022-09-03T03:35:02;96974.31;;;19.80;100.00
8061;BME280;4073;42.626;25.386;2022-09-03T03:37:29;96971.63;;;19.92;100.00
8061;BME280;4073;42.626;25.386;2022-09-03T03:39:54;96972.00;;;19.91;100.00
8061;BME280;4073;42.626;25.386;2022-09-03T03:42:20;96974.00;;;19.94;100.00
8061;BME280;4073;42.626;25.386;2022-09-03T03:44:45;96967.69;;;19.90;100.00
8061;BME280;4073;42.626;25.386;2022-09-03T03:47:10;96972.75;;;19.79;100.00
8061;BME280;4073;42.626;25.386;2022-09-03T03:49:36;96972.28;;;19.77;100.00
8061;BME280;4073;42.626;25.386;2022-09-03T03:52:02;96974.44;;;19.84;100.00
8061;BME280;4073;42.626;25.386;2022-09-03T03:54:28;96982.03;;;19.90;100.00
8061;BME280;4073;42.626;25.386;2022-09-03T03:56:55;96967.81;;;19.93;100.00
8061;BME280;4073;42.626;25.386;2022-09-03T03:59:22;96985.09;;;20.01;100.00
8061;BME280;4073;42.626;25.386;2022-09-03T04:01:47;96976.34;;;20.16;100.00
8061;BME280;4073;42.626;25.386;2022-09-03T04:04:14;96982.72;;;20.32;100.00
8061;BME280;4073;42.626;25.386;2022-09-03T04:06:40;96988.03;;;20.41;100.00
8061;BME280;4073;42.626;25.386;2022-09-03T04:09:05;96988.72;;;20.38;100.00
8061;BME280;4073;42.626;25.386;2022-09-03T04:11:31;96985.97;;;20.25;100.00
8061;BME280;4073;42.626;25.386;2022-09-03T04:13:56;96988.91;;;20.20;100.00
8061;BME280;4073;42.626;25.386;2022-09-03T04:16:25;96996.09;;;20.04;100.00
8061;BME280;4073;42.626;25.386;2022-09-03T04:18:52;96977.84;;;19.81;100.00
8061;BME280;4073;42.626;25.386;2022-09-03T04:21:20;96997.34;;;19.74;100.00
8061;BME280;4073;42.626;25.386;2022-09-03T04:23:49;96992.94;;;19.70;100.00
8061;BME280;4073;42.626;25.386;2022-09-03T04:26:21;97002.88;;;19.66;100.00
8061;BME280;4073;42.626;25.386;2022-09-03T04:28:47;96998.25;;;19.66;100.00
8061;BME280;4073;42.626;25.386;2022-09-03T04:31:15;96999.63;;;19.72;100.00
8061;BME280;4073;42.626;25.386;2022-09-03T04:33:42;96987.66;;;19.73;100.00
8061;BME280;4073;42.626;25.386;2022-09-03T04:36:13;96997.84;;;19.88;100.00
8061;BME280;4073;42.626;25.386;2022-09-03T04:38:41;96994.19;;;20.05;100.00
8061;BME280;4073;42.626;25.386;2022-09-03T04:41:08;97003.50;;;20.28;100.00
8061;BME280;4073;42.626;25.386;2022-09-03T04:43:34;96994.94;;;20.50;100.00
8061;BME280;4073;42.626;25.386;2022-09-03T04:46:02;97011.44;;;20.81;100.00
8061;BME280;4073;42.626;25.386;2022-09-03T04:48:29;97010.44;;;20.98;100.00
8061;BME280;4073;42.626;25.386;2022-09-03T04:51:01;97016.44;;;21.15;100.00
8061;BME280;4073;42.626;25.386;2022-09-03T04:53:29;97021.38;;;21.25;100.00
8061;BME280;4073;42.626;25.386;2022-09-03T04:55:55;97019.22;;;21.31;100.00
8061;BME280;4073;42.626;25.386;2022-09-03T04:58:20;97026.34;;;21.47;100.00
8061;BME280;4073;42.626;25.386;2022-09-03T05:00:46;97034.91;;;21.61;100.00
8061;BME280;4073;42.626;25.386;2022-09-03T05:03:11;97042.06;;;21.54;100.00
8061;BME280;4073;42.626;25.386;2022-09-03T05:05:37;97038.25;;;21.43;100.00
8061;BME280;4073;42.626;25.386;2022-09-03T05:08:03;97039.94;;;21.35;100.00
8061;BME280;4073;42.626;25.386;2022-09-03T05:10:29;97045.38;;;21.47;100.00
8061;BME280;4073;42.626;25.386;2022-09-03T05:13:03;97048.25;;;21.66;100.00
8061;BME280;4073;42.626;25.386;2022-09-03T05:15:29;97028.41;;;21.66;100.00
8061;BME280;4073;42.626;25.386;2022-09-03T05:17:59;97044.97;;;21.73;100.00
8061;BME280;4073;42.626;25.386;2022-09-03T05:20:26;97039.13;;;21.86;100.00
8061;BME280;4073;42.626;25.386;2022-09-03T05:22:52;97045.16;;;22.07;100.00
8061;BME280;4073;42.626;25.386;2022-09-03T05:25:18;97045.72;;;22.28;100.00
8061;BME280;4073;42.626;25.386;2022-09-03T05:27:44;97038.81;;;22.46;100.00
8061;BME280;4073;42.626;25.386;2022-09-03T05:30:10;97051.41;;;22.82;100.00
8061;BME280;4073;42.626;25.386;2022-09-03T05:32:36;97053.06;;;23.02;100.00
8061;BME280;4073;42.626;25.386;2022-09-03T05:35:01;97064.81;;;23.22;100.00
8061;BME280;4073;42.626;25.386;2022-09-03T05:37:27;97059.78;;;23.58;100.00
8061;BME280;4073;42.626;25.386;2022-09-03T05:39:52;97062.97;;;23.79;100.00
8061;BME280;4073;42.626;25.386;2022-09-03T05:42:18;97042.38;;;24.01;100.00
8061;BME280;4073;42.626;25.386;2022-09-03T05:44:44;97057.94;;;24.19;100.00
8061;BME280;4073;42.626;25.386;2022-09-03T05:47:10;97070.06;;;24.41;100.00
8061;BME280;4073;42.626;25.386;2022-09-03T05:49:35;97072.69;;;24.56;100.00
8061;BME280;4073;42.626;25.386;2022-09-03T05:52:01;97074.59;;;24.75;100.00
8061;BME280;4073;42.626;25.386;2022-09-03T05:54:27;97084.78;;;25.00;100.00
8061;BME280;4073;42.626;25.386;2022-09-03T05:56:53;97081.19;;;25.19;100.00
8061;BME280;4073;42.626;25.386;2022-09-03T05:59:19;97092.94;;;25.20;100.00
8061;BME280;4073;42.626;25.386;2022-09-03T06:01:45;97097.66;;;25.45;100.00
8061;BME280;4073;42.626;25.386;2022-09-03T06:04:12;97101.44;;;25.67;98.95
8061;BME280;4073;42.626;25.386;2022-09-03T06:06:44;97092.13;;;25.71;99.05
8061;BME280;4073;42.626;25.386;2022-09-03T06:09:15;97089.72;;;25.66;96.85
8061;BME280;4073;42.626;25.386;2022-09-03T06:11:43;97100.09;;;25.54;96.44
8061;BME280;4073;42.626;25.386;2022-09-03T06:14:12;97106.78;;;25.30;99.00
8061;BME280;4073;42.626;25.386;2022-09-03T06:16:41;97100.38;;;25.45;99.27
8061;BME280;4073;42.626;25.386;2022-09-03T06:19:07;97099.25;;;25.50;99.44
8061;BME280;4073;42.626;25.386;2022-09-03T06:21:42;97091.25;;;25.38;99.93
8061;BME280;4073;42.626;25.386;2022-09-03T06:24:18;97096.13;;;25.25;100.00
8061;BME280;4073;42.626;25.386;2022-09-03T06:26:45;97088.69;;;25.26;98.40
8061;BME280;4073;42.626;25.386;2022-09-03T06:29:11;97103.31;;;25.59;95.55
8061;BME280;4073;42.626;25.386;2022-09-03T06:31:37;97101.03;;;26.24;96.07
8061;BME280;4073;42.626;25.386;2022-09-03T06:34:04;97106.53;;;26.97;92.00
8061;BME280;4073;42.626;25.386;2022-09-03T06:36:30;97101.00;;;27.40;76.20
8061;BME280;4073;42.626;25.386;2022-09-03T06:38:56;97110.00;;;27.95;75.21
8061;BME280;4073;42.626;25.386;2022-09-03T06:41:25;97120.63;;;28.00;69.92
8061;BME280;4073;42.626;25.386;2022-09-03T06:43:53;97123.78;;;28.02;69.48
8061;BME280;4073;42.626;25.386;2022-09-03T06:46:21;97123.94;;;27.69;68.03
8061;BME280;4073;42.626;25.386;2022-09-03T06:48:48;97118.94;;;27.27;69.71
8061;BME280;4073;42.626;25.386;2022-09-03T06:51:23;97121.81;;;26.98;68.81
8061;BME280;4073;42.626;25.386;2022-09-03T06:53:51;97124.28;;;26.70;69.22
8061;BME280;4073;42.626;25.386;2022-09-03T06:56:21;97128.44;;;26.57;71.40
8061;BME280;4073;42.626;25.386;2022-09-03T06:58:56;97118.13;;;26.43;72.48
8061;BME280;4073;42.626;25.386;2022-09-03T07:01:28;97124.94;;;26.23;69.80
8061;BME280;4073;42.626;25.386;2022-09-03T07:04:04;97127.53;;;26.13;68.30
8061;BME280;4073;42.626;25.386;2022-09-03T07:06:32;97124.88;;;26.20;70.25
8061;BME280;4073;42.626;25.386;2022-09-03T07:08:58;97122.94;;;26.20;71.47
8061;BME280;4073;42.626;25.386;2022-09-03T07:11:26;97123.09;;;26.34;71.68
8061;BME280;4073;42.626;25.386;2022-09-03T07:13:53;97124.41;;;26.47;68.92
8061;BME280;4073;42.626;25.386;2022-09-03T07:16:22;97125.72;;;26.97;65.29
8061;BME280;4073;42.626;25.386;2022-09-03T07:18:49;97132.66;;;27.24;62.24
8061;BME280;4073;42.626;25.386;2022-09-03T07:21:17;97140.13;;;27.81;59.51
8061;BME280;4073;42.626;25.386;2022-09-03T07:23:44;97132.03;;;28.02;57.87
8061;BME280;4073;42.626;25.386;2022-09-03T07:26:16;97145.13;;;28.40;56.32
8061;BME280;4073;42.626;25.386;2022-09-03T07:28:44;97147.22;;;28.68;55.85
8061;BME280;4073;42.626;25.386;2022-09-03T07:31:16;97144.13;;;29.01;54.74
8061;BME280;4073;42.626;25.386;2022-09-03T07:33:46;97142.59;;;29.49;54.62
8061;BME280;4073;42.626;25.386;2022-09-03T07:36:14;97137.47;;;29.72;51.99
8061;BME280;4073;42.626;25.386;2022-09-03T07:38:41;97140.22;;;29.79;51.09
8061;BME280;4073;42.626;25.386;2022-09-03T07:41:10;97142.19;;;29.57;50.98
8061;BME280;4073;42.626;25.386;2022-09-03T07:43:37;97136.72;;;29.61;51.92
8061;BME280;4073;42.626;25.386;2022-09-03T07:46:09;97147.34;;;29.73;49.10
8061;BME280;4073;42.626;25.386;2022-09-03T07:48:40;97141.31;;;30.20;49.21
8061;BME280;4073;42.626;25.386;2022-09-03T07:51:07;97149.56;;;30.27;48.38
8061;BME280;4073;42.626;25.386;2022-09-03T07:53:33;97144.00;;;30.38;48.29
8061;BME280;4073;42.626;25.386;2022-09-03T07:56:06;97133.47;;;30.01;49.10
8061;BME280;4073;42.626;25.386;2022-09-03T07:58:33;97142.97;;;29.72;48.85
8061;BME280;4073;42.626;25.386;2022-09-03T08:01:14;97135.94;;;29.29;50.68
8061;BME280;4073;42.626;25.386;2022-09-03T08:03:46;97129.19;;;29.02;51.77
8061;BME280;4073;42.626;25.386;2022-09-03T08:06:12;97136.31;;;29.10;52.41
8061;BME280;4073;42.626;25.386;2022-09-03T08:08:38;97130.00;;;29.09;52.06
8061;BME280;4073;42.626;25.386;2022-09-03T08:11:15;97122.50;;;28.89;53.20
8061;BME280;4073;42.626;25.386;2022-09-03T08:13:43;97130.66;;;28.54;53.36
8061;BME280;4073;42.626;25.386;2022-09-03T08:16:14;97136.53;;;28.45;53.21
8061;BME280;4073;42.626;25.386;2022-09-03T08:18:40;97123.25;;;28.65;53.45
8061;BME280;4073;42.626;25.386;2022-09-03T08:21:11;97127.97;;;28.61;53.33
8061;BME280;4073;42.626;25.386;2022-09-03T08:23:44;97125.97;;;28.61;52.46
8061;BME280;4073;42.626;25.386;2022-09-03T08:26:11;97125.22;;;28.78;52.93
8061;BME280;4073;42.626;25.386;2022-09-03T08:28:52;97143.34;;;28.93;52.86
8061;BME280;4073;42.626;25.386;2022-09-03T08:31:20;97134.66;;;28.84;52.07
8061;BME280;4073;42.626;25.386;2022-09-03T08:33:51;97129.97;;;28.99;51.95
8061;BME280;4073;42.626;25.386;2022-09-03T08:36:22;97128.03;;;29.13;51.61
8061;BME280;4073;42.626;25.386;2022-09-03T08:38:48;97135.53;;;29.13;51.44
8061;BME280;4073;42.626;25.386;2022-09-03T08:49:30;97141.03;;;29.51;50.21
8061;BME280;4073;42.626;25.386;2022-09-03T08:52:02;97126.47;;;29.30;50.08
8061;BME280;4073;42.626;25.386;2022-09-03T08:54:37;97106.41;;;29.15;50.45
8061;BME280;4073;42.626;25.386;2022-09-03T08:57:16;97120.97;;;29.37;48.89
8061;BME280;4073;42.626;25.386;2022-09-03T08:59:44;97143.78;;;29.51;49.00
8061;BME280;4073;42.626;25.386;2022-09-03T09:02:38;97131.59;;;29.31;49.29
8061;BME280;4073;42.626;25.386;2022-09-03T09:05:16;97141.44;;;29.64;48.73
8061;BME280;4073;42.626;25.386;2022-09-03T09:13:40;97129.81;;;30.39;45.49
8061;BME280;4073;42.626;25.386;2022-09-03T09:16:20;97138.72;;;30.68;45.41
8061;BME280;4073;42.626;25.386;2022-09-03T09:21:58;97129.31;;;31.27;43.59
8061;BME280;4073;42.626;25.386;2022-09-03T09:24:28;97127.84;;;31.08;42.91
8061;BME280;4073;42.626;25.386;2022-09-03T09:27:00;97138.00;;;31.18;42.77
8061;BME280;4073;42.626;25.386;2022-09-03T09:29:36;97126.22;;;31.14;42.54
8061;BME280;4073;42.626;25.386;2022-09-03T09:32:02;97128.81;;;31.39;42.58
8061;BME280;4073;42.626;25.386;2022-09-03T09:34:36;97117.19;;;31.07;42.68
8061;BME280;4073;42.626;25.386;2022-09-03T09:37:05;97125.22;;;30.91;43.79
8061;BME280;4073;42.626;25.386;2022-09-03T09:39:32;97124.31;;;31.08;43.39
8061;BME280;4073;42.626;25.386;2022-09-03T09:41:59;97133.25;;;31.26;43.24
8061;BME280;4073;42.626;25.386;2022-09-03T09:44:32;97128.69;;;31.02;42.99
8061;BME280;4073;42.626;25.386;2022-09-03T09:47:06;97127.94;;;30.94;43.88
8061;BME280;4073;42.626;25.386;2022-09-03T09:49:36;97135.00;;;30.99;43.04
8061;BME280;4073;42.626;25.386;2022-09-03T09:52:13;97137.13;;;30.70;43.46
8061;BME280;4073;42.626;25.386;2022-09-03T09:57:24;97135.38;;;30.32;44.20
8061;BME280;4073;42.626;25.386;2022-09-03T10:00:03;97138.25;;;29.90;45.20
8061;BME280;4073;42.626;25.386;2022-09-03T10:02:34;97135.88;;;29.85;45.26
8061;BME280;4073;42.626;25.386;2022-09-03T10:07:38;97157.94;;;29.78;46.11
8061;BME280;4073;42.626;25.386;2022-09-03T10:10:15;97149.25;;;28.99;47.60
8061;BME280;4073;42.626;25.386;2022-09-03T10:13:01;97162.13;;;28.60;49.67
8061;BME280;4073;42.626;25.386;2022-09-03T10:15:57;97158.47;;;28.38;50.45
8061;BME280;4073;42.626;25.386;2022-09-03T10:21:09;97151.13;;;28.60;50.57
8061;BME280;4073;42.626;25.386;2022-09-03T10:23:50;97166.63;;;29.34;48.68
8061;BME280;4073;42.626;25.386;2022-09-03T10:26:22;97164.56;;;30.02;46.00
8061;BME280;4073;42.626;25.386;2022-09-03T10:28:57;97161.25;;;30.59;45.39
8061;BME280;4073;42.626;25.386;2022-09-03T10:34:12;97161.41;;;31.00;44.10
8061;BME280;4073;42.626;25.386;2022-09-03T10:47:36;97148.66;;;31.23;42.96
8061;BME280;4073;42.626;25.386;2022-09-03T10:50:29;97153.34;;;31.30;43.21
8061;BME280;4073;42.626;25.386;2022-09-03T10:56:00;97167.91;;;31.78;42.08
8061;BME280;4073;42.626;25.386;2022-09-03T11:06:39;97148.22;;;30.63;43.63
8061;BME280;4073;42.626;25.386;2022-09-03T11:09:17;97159.84;;;30.09;45.31
8061;BME280;4073;42.626;25.386;2022-09-03T11:11:53;97140.44;;;30.37;44.60
8061;BME280;4073;42.626;25.386;2022-09-03T11:14:47;97151.97;;;30.97;44.03
8061;BME280;4073;42.626;25.386;2022-09-03T11:17:22;97150.53;;;31.37;43.02
8061;BME280;4073;42.626;25.386;2022-09-03T11:22:39;97158.09;;;31.22;43.05
8061;BME280;4073;42.626;25.386;2022-09-03T11:25:07;97160.41;;;30.76;44.56
8061;BME280;4073;42.626;25.386;2022-09-03T11:28:00;97163.38;;;31.03;44.30
8061;BME280;4073;42.626;25.386;2022-09-03T11:30:54;97160.72;;;30.92;43.95
8061;BME280;4073;42.626;25.386;2022-09-03T11:33:27;97171.50;;;31.24;44.34
8061;BME280;4073;42.626;25.386;2022-09-03T11:35:56;97172.31;;;31.24;43.26
8061;BME280;4073;42.626;25.386;2022-09-03T11:38:26;97162.97;;;31.04;43.41
8061;BME280;4073;42.626;25.386;2022-09-03T11:41:52;97168.69;;;30.73;43.18
8061;BME280;4073;42.626;25.386;2022-09-03T11:44:17;97161.78;;;30.16;45.63
8061;BME280;4073;42.626;25.386;2022-09-03T11:46:54;97159.50;;;29.58;46.53
8061;BME280;4073;42.626;25.386;2022-09-03T11:49:31;97160.31;;;29.34;47.83
8061;BME280;4073;42.626;25.386;2022-09-03T11:52:04;97156.38;;;29.24;48.62
8061;BME280;4073;42.626;25.386;2022-09-03T11:54:43;97138.25;;;29.02;48.37
8061;BME280;4073;42.626;25.386;2022-09-03T11:57:13;97167.31;;;28.96;49.47
8061;BME280;4073;42.626;25.386;2022-09-03T11:59:42;97163.38;;;28.94;49.36
8061;BME280;4073;42.626;25.386;2022-09-03T12:02:25;97160.19;;;28.67;49.98
8061;BME280;4073;42.626;25.386;2022-09-03T12:18:40;97165.03;;;29.54;48.10
8061;BME280;4073;42.626;25.386;2022-09-03T12:21:08;97154.78;;;29.23;48.71
8061;BME280;4073;42.626;25.386;2022-09-03T12:23:45;97175.56;;;28.96;49.38
8061;BME280;4073;42.626;25.386;2022-09-03T12:26:16;97180.28;;;28.89;50.23
8061;BME280;4073;42.626;25.386;2022-09-03T12:28:55;97181.06;;;28.89;49.80
8061;BME280;4073;42.626;25.386;2022-09-03T12:31:22;97172.44;;;29.01;49.94
8061;BME280;4073;42.626;25.386;2022-09-03T12:33:59;97174.78;;;28.96;49.11
8061;BME280;4073;42.626;25.386;2022-09-03T12:36:35;97181.44;;;28.88;49.84
8061;BME280;4073;42.626;25.386;2022-09-03T12:39:18;97169.22;;;28.68;50.01
8061;BME280;4073;42.626;25.386;2022-09-03T12:42:04;97173.88;;;28.50;50.81
8061;BME280;4073;42.626;25.386;2022-09-03T12:49:34;97166.53;;;28.92;50.00
8061;BME280;4073;42.626;25.386;2022-09-03T12:55:20;97180.56;;;28.52;50.16
8061;BME280;4073;42.626;25.386;2022-09-03T12:57:43;97173.91;;;28.64;50.39
8061;BME280;4073;42.626;25.386;2022-09-03T13:00:13;97184.53;;;28.65;50.59
8061;BME280;4073;42.626;25.386;2022-09-03T13:05:24;97184.59;;;27.97;52.23
8061;BME280;4073;42.626;25.386;2022-09-03T13:07:55;97183.47;;;27.51;53.73
8061;BME280;4073;42.626;25.386;2022-09-03T13:10:28;97184.72;;;27.20;55.04
8061;BME280;4073;42.626;25.386;2022-09-03T13:12:59;97172.94;;;27.16;54.89
8061;BME280;4073;42.626;25.386;2022-09-03T13:15:27;97175.81;;;26.90;55.56
8061;BME280;4073;42.626;25.386;2022-09-03T13:35:27;97171.41;;;27.66;53.78
8061;BME280;4073;42.626;25.386;2022-09-03T13:40:34;97174.38;;;27.00;55.68
8061;BME280;4073;42.626;25.386;2022-09-03T13:43:30;97183.13;;;26.76;56.63
8061;BME280;4073;42.626;25.386;2022-09-03T13:46:15;97174.66;;;26.58;57.87
8061;BME280;4073;42.626;25.386;2022-09-03T13:48:46;97172.59;;;26.48;58.22
8061;BME280;4073;42.626;25.386;2022-09-03T13:54:14;97181.50;;;26.71;57.10
8061;BME280;4073;42.626;25.386;2022-09-03T13:57:03;97164.38;;;26.48;57.64
8061;BME280;4073;42.626;25.386;2022-09-03T14:00:03;97174.34;;;26.30;58.54
8061;BME280;4073;42.626;25.386;2022-09-03T14:08:03;97182.38;;;26.49;57.90
8061;BME280;4073;42.626;25.386;2022-09-03T14:13:45;97185.69;;;26.32;57.62
8061;BME280;4073;42.626;25.386;2022-09-03T14:19:18;97194.34;;;26.34;57.93
8061;BME280;4073;42.626;25.386;2022-09-03T14:21:59;97181.03;;;26.33;57.41
8061;BME280;4073;42.626;25.386;2022-09-03T14:24:35;97175.56;;;26.36;57.70
8061;BME280;4073;42.626;25.386;2022-09-03T14:27:04;97166.59;;;26.39;57.54
8061;BME280;4073;42.626;25.386;2022-09-03T14:29:33;97174.28;;;26.60;57.52
8061;BME280;4073;42.626;25.386;2022-09-03T14:34:44;97171.34;;;26.42;57.50
8061;BME280;4073;42.626;25.386;2022-09-03T14:40:16;97175.69;;;26.43;58.10
8061;BME280;4073;42.626;25.386;2022-09-03T14:45:50;97179.81;;;26.01;58.48
8061;BME280;4073;42.626;25.386;2022-09-03T14:48:36;97186.56;;;25.81;59.58
8061;BME280;4073;42.626;25.386;2022-09-03T15:10:34;97207.00;;;25.38;61.17
8061;BME280;4073;42.626;25.386;2022-09-03T15:13:11;97193.47;;;25.26;62.02
8061;BME280;4073;42.626;25.386;2022-09-03T15:20:58;97208.19;;;25.18;62.78
8061;BME280;4073;42.626;25.386;2022-09-03T15:35:08;97201.06;;;24.91;62.95
8061;BME280;4073;42.626;25.386;2022-09-03T15:37:51;97210.03;;;24.91;62.97
8061;BME280;4073;42.626;25.386;2022-09-03T15:40:30;97210.56;;;24.78;63.12
8061;BME280;4073;42.626;25.386;2022-09-03T15:43:06;97213.47;;;24.66;63.53
8061;BME280;4073;42.626;25.386;2022-09-03T15:45:34;97218.16;;;24.65;63.61
8061;BME280;4073;42.626;25.386;2022-09-03T15:48:25;97214.91;;;24.60;63.72
8061;BME280;4073;42.626;25.386;2022-09-03T15:51:09;97219.56;;;24.59;62.96
8061;BME280;4073;42.626;25.386;2022-09-03T15:53:57;97219.97;;;24.61;63.06
8061;BME280;4073;42.626;25.386;2022-09-03T15:56:30;97212.75;;;24.69;63.33
8061;BME280;4073;42.626;25.386;2022-09-03T15:59:18;97227.13;;;24.66;63.08
8061;BME280;4073;42.626;25.386;2022-09-03T16:04:38;97235.41;;;24.69;62.64
8061;BME280;4073;42.626;25.386;2022-09-03T16:12:40;97226.19;;;24.39;63.78
8061;BME280;4073;42.626;25.386;2022-09-03T16:15:19;97236.66;;;24.18;64.86
8061;BME280;4073;42.626;25.386;2022-09-03T16:18:14;97235.19;;;24.05;65.10
8061;BME280;4073;42.626;25.386;2022-09-03T16:20:46;97221.28;;;23.79;66.04
8061;BME280;4073;42.626;25.386;2022-09-03T16:23:45;97238.03;;;23.78;66.96
8061;BME280;4073;42.626;25.386;2022-09-03T16:26:20;97241.22;;;23.80;67.05
8061;BME280;4073;42.626;25.386;2022-09-03T16:28:59;97253.34;;;23.82;67.44
8061;BME280;4073;42.626;25.386;2022-09-03T16:50:25;97266.22;;;23.51;68.30
8061;BME280;4073;42.626;25.386;2022-09-03T16:53:09;97264.47;;;23.43;68.62
8061;BME280;4073;42.626;25.386;2022-09-03T16:55:59;97270.19;;;23.38;68.44
8061;BME280;4073;42.626;25.386;2022-09-03T16:58:54;97273.19;;;23.33;68.45
8061;BME280;4073;42.626;25.386;2022-09-03T17:06:50;97285.34;;;23.08;69.38
8061;BME280;4073;42.626;25.386;2022-09-03T17:12:17;97285.25;;;23.04;69.67
8061;BME280;4073;42.626;25.386;2022-09-03T17:46:04;97343.69;;;22.91;68.91
8061;BME280;4073;42.626;25.386;2022-09-03T17:54:35;97357.03;;;22.81;69.12
8061;BME280;4073;42.626;25.386;2022-09-03T17:57:21;97357.25;;;22.75;68.88
8061;BME280;4073;42.626;25.386;2022-09-03T18:00:06;97358.19;;;22.67;69.09
8061;BME280;4073;42.626;25.386;2022-09-03T18:02:53;97364.78;;;22.66;68.86
8061;BME280;4073;42.626;25.386;2022-09-03T18:05:40;97375.22;;;22.64;69.37
8061;BME280;4073;42.626;25.386;2022-09-03T18:08:27;97376.50;;;22.55;69.90
8061;BME280;4073;42.626;25.386;2022-09-03T18:11:12;97377.63;;;22.54;69.81
8061;BME280;4073;42.626;25.386;2022-09-03T18:16:41;97376.38;;;22.39;70.41
8061;BME280;4073;42.626;25.386;2022-09-03T18:19:38;97367.88;;;22.41;70.36
8061;BME280;4073;42.626;25.386;2022-09-03T18:22:30;97386.34;;;22.35;70.37